Time;durP1;ratioP1;P1;durP2;ratioP2;P2;SDS_P1;SDS_P2;PMS_P1;PMS_P2;Temp;Humidity;BMP_temperature;BMP_pressure;BME280_temperature;BME280_humidity;BME280_pressure;Samples;Min_cycle;Max_cycle;Signal;HPM_P1;HPM_P2
2021/03/22 00:00:20;;;;;;;122.57;52.42;;;;;;;;;;5050741;28;20232;-71
2021/03/22 00:02:46;;;;;;;109.13;48.85;;;;;;;;;;5042580;28;20174;-70
2021/03/22 00:05:12;;;;;;;113.15;50.05;;;;;;;;;;5033549;28;20196;-70
2021/03/22 00:07:38;;;;;;;110.43;48.90;;;;;;;;;;5031025;28;20256;-71
2021/03/22 00:10:04;;;;;;;106.97;48.63;;;;;;;;;;5031023;28;20260;-71
2021/03/22 00:12:30;;;;;;;84.50;45.28;;;;;;;;;;5030511;28;20275;-70
2021/03/22 00:14:56;;;;;;;71.50;42.73;;;;;;;;;;5030981;28;20242;-71
2021/03/22 00:17:22;;;;;;;70.67;43.07;;;;;;;;;;5043947;28;20900;-71
2021/03/22 00:19:48;;;;;;;64.22;39.70;;;;;;;;;;5046218;28;20405;-71
2021/03/22 00:22:14;;;;;;;68.97;41.15;;;;;;;;;;5036890;28;20205;-70
2021/03/22 00:24:40;;;;;;;67.88;41.15;;;;;;;;;;5030833;28;20170;-70
2021/03/22 00:27:07;;;;;;;68.10;41.97;;;;;;;;;;5031488;28;20251;-71
2021/03/22 00:29:33;;;;;;;65.35;40.22;;;;;;;;;;5031033;28;20598;-70
2021/03/22 00:31:59;;;;;;;68.40;41.60;;;;;;;;;;5030551;28;20182;-71
2021/03/22 00:34:25;;;;;;;68.23;41.70;;;;;;;;;;5030958;28;20231;-71
2021/03/22 00:36:51;;;;;;;69.13;42.67;;;;;;;;;;5012909;28;20486;-71
2021/03/22 00:39:17;;;;;;;68.10;41.13;;;;;;;;;;5033710;28;20758;-71
2021/03/22 00:41:42;;;;;;;69.37;42.10;;;;;;;;;;5034370;28;20942;-71
2021/03/22 00:44:08;;;;;;;69.10;42.27;;;;;;;;;;5017010;28;20431;-71
2021/03/22 00:46:34;;;;;;;67.93;41.30;;;;;;;;;;5017024;28;20420;-71
2021/03/22 00:49:00;;;;;;;73.27;43.87;;;;;;;;;;5034699;28;20418;-71
2021/03/22 00:51:26;;;;;;;67.40;41.30;;;;;;;;;;5034425;28;20431;-71
2021/03/22 00:53:52;;;;;;;66.93;41.10;;;;;;;;;;5034566;28;20883;-71
2021/03/22 00:56:18;;;;;;;65.80;39.70;;;;;;;;;;5034643;28;20405;-71
2021/03/22 00:58:44;;;;;;;64.47;38.97;;;;;;;;;;5046848;28;20458;-70
2021/03/22 01:01:10;;;;;;;74.20;41.30;;;;;;;;;;5034271;28;20218;-71
2021/03/22 01:03:37;;;;;;;71.20;41.53;;;;;;;;;;5043774;28;20414;-71
2021/03/22 01:06:04;;;;;;;65.75;40.17;;;;;;;;;;5034526;28;20517;-71
2021/03/22 01:08:30;;;;;;;68.45;39.72;;;;;;;;;;5034765;28;20233;-71
2021/03/22 01:11:05;;;;;;;71.15;40.20;;;;;;;;;;5033895;28;20288;-71
2021/03/22 01:13:38;;;;;;;73.10;40.88;;;;;;;;;;5034452;28;20179;-71
2021/03/22 01:16:05;;;;;;;69.10;39.65;;;;;;;;;;5034017;28;20167;-71
2021/03/22 01:18:33;;;;;;;69.57;40.90;;;;;;;;;;5034336;28;20637;-71
2021/03/22 01:21:06;;;;;;;68.50;41.75;;;;;;;;;;5037290;28;20635;-70
2021/03/22 01:23:32;;;;;;;72.80;40.72;;;;;;;;;;5036419;28;20173;-71
2021/03/22 01:25:58;;;;;;;70.70;40.80;;;;;;;;;;5036508;28;20169;-70
2021/03/22 01:28:24;;;;;;;65.65;39.67;;;;;;;;;;5051186;28;20595;-70
2021/03/22 01:30:53;;;;;;;66.43;40.23;;;;;;;;;;5053490;28;20210;-71
2021/03/22 01:33:27;;;;;;;67.88;41.38;;;;;;;;;;5053289;28;20432;-71
2021/03/22 01:35:54;;;;;;;67.63;39.53;;;;;;;;;;5052604;28;20602;-71
2021/03/22 01:38:20;;;;;;;66.20;40.67;;;;;;;;;;5033500;28;20181;-69
2021/03/22 01:40:55;;;;;;;68.63;42.63;;;;;;;;;;5033411;28;20187;-71
2021/03/22 01:43:24;;;;;;;65.90;40.00;;;;;;;;;;5033347;28;20178;-71
2021/03/22 01:45:50;;;;;;;65.28;40.28;;;;;;;;;;5033121;28;20288;-71
2021/03/22 01:48:18;;;;;;;70.18;40.88;;;;;;;;;;5033650;28;20301;-71
2021/03/22 01:50:44;;;;;;;73.18;40.78;;;;;;;;;;5032880;28;20807;-71
2021/03/22 01:53:10;;;;;;;73.57;40.65;;;;;;;;;;5033368;28;20262;-71
2021/03/22 01:55:36;;;;;;;74.90;40.75;;;;;;;;;;5015774;28;20188;-71
2021/03/22 01:58:02;;;;;;;69.72;40.80;;;;;;;;;;5037190;28;20187;-71
2021/03/22 02:00:32;;;;;;;68.13;40.78;;;;;;;;;;5049416;28;20540;-71
2021/03/22 02:02:59;;;;;;;73.90;41.13;;;;;;;;;;5044622;28;20240;-71
2021/03/22 02:05:28;;;;;;;68.30;38.55;;;;;;;;;;5016413;28;20181;-72
2021/03/22 02:08:02;;;;;;;67.30;40.50;;;;;;;;;;5033227;28;20201;-71
2021/03/22 02:10:28;;;;;;;68.78;41.25;;;;;;;;;;5033016;28;20195;-71
2021/03/22 02:12:54;;;;;;;66.72;41.17;;;;;;;;;;5032935;28;20168;-71
2021/03/22 02:15:20;;;;;;;68.88;41.95;;;;;;;;;;5033028;28;20237;-71
2021/03/22 02:17:56;;;;;;;71.90;46.75;;;;;;;;;;5033391;28;20184;-70
2021/03/22 02:20:40;;;;;;;66.43;40.47;;;;;;;;;;5035024;28;20179;-71
2021/03/22 02:23:29;;;;;;;72.65;40.33;;;;;;;;;;5032866;28;20244;-71
2021/03/22 02:26:24;;;;;;;72.65;40.78;;;;;;;;;;5005725;28;20205;-71
2021/03/22 02:29:09;;;;;;;66.72;41.40;;;;;;;;;;5012005;28;20199;-71
2021/03/22 02:31:38;;;;;;;70.53;42.88;;;;;;;;;;5032332;28;20198;-71
2021/03/22 02:34:24;;;;;;;70.55;42.05;;;;;;;;;;5046328;28;20215;-71
2021/03/22 02:37:08;;;;;;;70.13;42.05;;;;;;;;;;5025272;28;20288;-71
2021/03/22 02:39:38;;;;;;;68.13;41.08;;;;;;;;;;5032911;28;20214;-70
2021/03/22 02:42:06;;;;;;;68.15;41.78;;;;;;;;;;5014251;28;20192;-71
2021/03/22 02:44:34;;;;;;;64.97;39.63;;;;;;;;;;5032537;28;20638;-71
2021/03/22 02:47:03;;;;;;;70.60;42.10;;;;;;;;;;5032631;28;20249;-71
2021/03/22 02:49:31;;;;;;;68.25;40.90;;;;;;;;;;5034784;28;20691;-70
2021/03/22 02:52:00;;;;;;;70.28;42.10;;;;;;;;;;5043674;28;20194;-70
2021/03/22 02:54:32;;;;;;;71.55;44.08;;;;;;;;;;5032265;28;20242;-70
2021/03/22 02:57:03;;;;;;;68.95;41.50;;;;;;;;;;5032350;28;20210;-71
2021/03/22 02:59:36;;;;;;;64.03;37.40;;;;;;;;;;5044241;28;20211;-71
2021/03/22 03:02:04;;;;;;;69.15;41.92;;;;;;;;;;5039883;28;20194;-71
2021/03/22 03:04:33;;;;;;;69.43;41.85;;;;;;;;;;5022956;28;20190;-71
2021/03/22 03:07:01;;;;;;;69.10;41.35;;;;;;;;;;5013861;28;20514;-71
2021/03/22 03:09:28;;;;;;;67.85;41.25;;;;;;;;;;5031676;28;20178;-70
2021/03/22 03:11:54;;;;;;;67.97;41.10;;;;;;;;;;5031327;28;20193;-71
2021/03/22 03:14:21;;;;;;;68.70;41.65;;;;;;;;;;5032090;28;20185;-72
2021/03/22 03:16:47;;;;;;;69.07;42.17;;;;;;;;;;5031760;28;20304;-71
2021/03/22 03:19:13;;;;;;;68.75;41.67;;;;;;;;;;5014202;28;20257;-71
2021/03/22 03:21:39;;;;;;;68.25;40.58;;;;;;;;;;5040313;28;20185;-71
2021/03/22 03:24:06;;;;;;;67.50;39.97;;;;;;;;;;5033529;28;20213;-71
2021/03/22 03:26:32;;;;;;;129.32;49.78;;;;;;;;;;5051601;28;20170;-71
2021/03/22 03:28:58;;;;;;;128.30;52.03;;;;;;;;;;5051448;28;20509;-71
2021/03/22 03:31:24;;;;;;;144.88;51.47;;;;;;;;;;5042761;28;20483;-71
2021/03/22 03:33:50;;;;;;;94.95;49.45;;;;;;;;;;5033960;28;20652;-71
2021/03/22 03:36:19;;;;;;;103.82;47.17;;;;;;;;;;5029460;28;20251;-71
2021/03/22 03:38:45;;;;;;;81.82;39.28;;;;;;;;;;5031645;28;20196;-71
2021/03/22 03:41:11;;;;;;;105.60;51.85;;;;;;;;;;5031267;28;20189;-71
2021/03/22 03:43:37;;;;;;;100.60;47.60;;;;;;;;;;5031906;28;20174;-71
2021/03/22 03:46:03;;;;;;;108.67;48.67;;;;;;;;;;5013659;28;20515;-71
2021/03/22 03:48:29;;;;;;;114.97;49.17;;;;;;;;;;5031624;28;20411;-71
2021/03/22 03:50:57;;;;;;;115.40;48.40;;;;;;;;;;5031153;28;20210;-72
2021/03/22 03:53:23;;;;;;;109.97;48.42;;;;;;;;;;5067659;22;20270;-68
2021/03/22 03:55:49;;;;;;;104.70;52.60;;;;;;;;;;5049023;28;20184;-69
2021/03/22 03:58:15;;;;;;;116.40;51.03;;;;;;;;;;5048314;28;20222;-70
2021/03/22 04:00:43;;;;;;;109.68;50.75;;;;;;;;;;5049343;28;20176;-69
2021/03/22 04:03:15;;;;;;;114.43;50.20;;;;;;;;;;5042586;28;20567;-69
2021/03/22 04:05:41;;;;;;;116.95;49.33;;;;;;;;;;5035499;28;20174;-70
2021/03/22 04:08:07;;;;;;;123.03;51.08;;;;;;;;;;5040708;28;20179;-68
2021/03/22 04:10:33;;;;;;;87.70;49.90;;;;;;;;;;5023558;28;20696;-69
2021/03/22 04:12:59;;;;;;;96.90;46.85;;;;;;;;;;5042565;28;20190;-69
2021/03/22 04:15:25;;;;;;;89.68;42.67;;;;;;;;;;5032784;28;20192;-68
2021/03/22 04:17:51;;;;;;;102.65;48.15;;;;;;;;;;5040374;28;20551;-69
2021/03/22 04:20:18;;;;;;;103.32;49.10;;;;;;;;;;5039609;28;20172;-69
2021/03/22 04:22:43;;;;;;;108.40;48.47;;;;;;;;;;5034160;28;20193;-68
2021/03/22 04:25:10;;;;;;;88.75;42.53;;;;;;;;;;5048721;28;20201;-70
2021/03/22 04:27:36;;;;;;;91.88;47.05;;;;;;;;;;5039226;28;20169;-69
2021/03/22 04:30:03;;;;;;;96.35;49.75;;;;;;;;;;5035181;28;20197;-69
2021/03/22 04:32:29;;;;;;;85.25;46.25;;;;;;;;;;5030812;28;20282;-69
2021/03/22 04:34:55;;;;;;;87.37;49.17;;;;;;;;;;5032243;28;20580;-67
2021/03/22 04:37:21;;;;;;;84.57;47.63;;;;;;;;;;5032786;28;20907;-69
2021/03/22 04:39:47;;;;;;;86.93;48.97;;;;;;;;;;5032637;28;20223;-67
2021/03/22 04:42:13;;;;;;;83.73;46.97;;;;;;;;;;5032338;28;20189;-69
2021/03/22 04:44:39;;;;;;;80.75;45.00;;;;;;;;;;5033659;28;20424;-69
2021/03/22 04:47:05;;;;;;;82.37;46.97;;;;;;;;;;5032442;28;20238;-68
2021/03/22 04:49:31;;;;;;;87.70;46.40;;;;;;;;;;5032661;28;20848;-70
2021/03/22 04:51:57;;;;;;;79.93;42.43;;;;;;;;;;5032337;28;20193;-69
2021/03/22 04:54:23;;;;;;;85.13;44.77;;;;;;;;;;5032324;28;20396;-71
2021/03/22 04:56:49;;;;;;;85.43;42.23;;;;;;;;;;5031887;28;20467;-69
2021/03/22 04:59:15;;;;;;;75.90;39.35;;;;;;;;;;5029516;28;20432;-69
2021/03/22 05:01:41;;;;;;;81.05;45.80;;;;;;;;;;5030801;28;20227;-68
2021/03/22 05:04:07;;;;;;;82.60;45.50;;;;;;;;;;5031578;28;20274;-69
2021/03/22 05:06:33;;;;;;;74.50;41.65;;;;;;;;;;5011890;28;20426;-68
2021/03/22 05:08:59;;;;;;;86.43;49.47;;;;;;;;;;5029300;28;20182;-69
2021/03/22 05:11:27;;;;;;;83.38;47.60;;;;;;;;;;5031474;28;20496;-70
2021/03/22 05:13:53;;;;;;;81.65;47.35;;;;;;;;;;5027024;28;20213;-68
2021/03/22 05:16:19;;;;;;;79.13;41.30;;;;;;;;;;5042135;28;20233;-69
2021/03/22 05:18:45;;;;;;;80.15;43.65;;;;;;;;;;5042482;28;20174;-68
2021/03/22 05:21:11;;;;;;;90.90;54.65;;;;;;;;;;5043350;28;20415;-69
2021/03/22 05:23:38;;;;;;;82.75;48.42;;;;;;;;;;5044059;28;20200;-68
2021/03/22 05:26:04;;;;;;;86.30;49.25;;;;;;;;;;5048311;28;20204;-70
2021/03/22 05:28:34;;;;;;;93.07;52.03;;;;;;;;;;5047154;28;20169;-69
2021/03/22 05:31:00;;;;;;;67.50;37.58;;;;;;;;;;5050353;28;20193;-68
2021/03/22 05:33:26;;;;;;;87.68;49.97;;;;;;;;;;5050850;28;20185;-67
2021/03/22 05:35:54;;;;;;;78.75;45.40;;;;;;;;;;5047651;28;20268;-68
2021/03/22 05:38:20;;;;;;;88.90;43.15;;;;;;;;;;5042698;28;20535;-68
2021/03/22 05:40:49;;;;;;;78.03;44.38;;;;;;;;;;5037213;28;20189;-69
2021/03/22 05:43:25;;;;;;;85.32;42.45;;;;;;;;;;5028968;28;20184;-69
2021/03/22 05:46:09;;;;;;;88.35;45.90;;;;;;;;;;5045812;28;20173;-69
2021/03/22 05:48:45;;;;;;;88.72;45.15;;;;;;;;;;5044432;28;20594;-68
2021/03/22 05:51:30;;;;;;;86.13;44.05;;;;;;;;;;5017959;28;20234;-69
2021/03/22 05:54:14;;;;;;;63.70;36.03;;;;;;;;;;5016514;28;20202;-69
2021/03/22 05:57:02;;;;;;;72.68;37.70;;;;;;;;;;5016191;28;20172;-70
2021/03/22 05:59:34;;;;;;;70.80;37.60;;;;;;;;;;5033484;28;20239;-69
2021/03/22 06:02:02;;;;;;;82.32;46.47;;;;;;;;;;5032366;28;20252;-68
2021/03/22 06:04:38;;;;;;;74.90;39.08;;;;;;;;;;5029548;28;20605;-69
2021/03/22 06:07:04;;;;;;;90.30;50.53;;;;;;;;;;5010515;28;20208;-69
2021/03/22 06:09:33;;;;;;;89.50;51.08;;;;;;;;;;5038013;28;20205;-69
2021/03/22 06:12:01;;;;;;;70.25;37.25;;;;;;;;;;5042290;28;20198;-69
2021/03/22 06:14:31;;;;;;;81.53;44.35;;;;;;;;;;5042994;28;20173;-68
2021/03/22 06:17:20;;;;;;;80.53;44.13;;;;;;;;;;5044970;28;20173;-68
2021/03/22 06:19:51;;;;;;;85.40;46.67;;;;;;;;;;5039844;28;20173;-71
2021/03/22 06:22:19;;;;;;;63.85;34.83;;;;;;;;;;5050990;28;20201;-66
2021/03/22 06:24:45;;;;;;;86.25;47.13;;;;;;;;;;5026077;28;20240;-67
2021/03/22 06:27:41;;;;;;;86.22;46.63;;;;;;;;;;5049585;28;20169;-70
2021/03/22 06:30:15;;;;;;;84.03;46.28;;;;;;;;;;5013853;28;20186;-68
2021/03/22 06:32:44;;;;;;;72.57;38.22;;;;;;;;;;5025722;28;20205;-69
2021/03/22 06:35:20;;;;;;;87.32;47.72;;;;;;;;;;5026397;28;20174;-67
2021/03/22 06:37:49;;;;;;;80.72;45.20;;;;;;;;;;5039275;28;20169;-68
2021/03/22 06:40:35;;;;;;;90.80;46.90;;;;;;;;;;5036615;28;20176;-68
2021/03/22 06:43:10;;;;;;;103.97;53.20;;;;;;;;;;5023516;28;20193;-70
2021/03/22 06:45:42;;;;;;;137.77;58.78;;;;;;;;;;5042925;28;20167;-69
2021/03/22 06:48:13;;;;;;;90.95;45.47;;;;;;;;;;5037948;28;20192;-70
2021/03/22 06:50:40;;;;;;;89.65;48.72;;;;;;;;;;5037257;28;20246;-67
2021/03/22 06:53:06;;;;;;;87.38;46.63;;;;;;;;;;5040426;28;20220;-69
2021/03/22 06:55:42;;;;;;;83.45;46.85;;;;;;;;;;5035337;28;20230;-69
2021/03/22 06:58:24;;;;;;;96.95;52.63;;;;;;;;;;5037233;28;20176;-70
2021/03/22 07:00:50;;;;;;;71.95;38.47;;;;;;;;;;5039726;28;20177;-69
2021/03/22 07:03:24;;;;;;;75.60;44.73;;;;;;;;;;5040653;28;20208;-69
2021/03/22 07:05:50;;;;;;;83.25;48.45;;;;;;;;;;5039084;28;20440;-68
2021/03/22 07:08:19;;;;;;;74.97;42.90;;;;;;;;;;5037179;28;20663;-70
2021/03/22 07:10:45;;;;;;;93.10;48.25;;;;;;;;;;5037517;28;20206;-70
2021/03/22 07:13:17;;;;;;;81.70;43.47;;;;;;;;;;5036728;28;20288;-68
2021/03/22 07:15:43;;;;;;;73.30;39.65;;;;;;;;;;5044110;28;20406;-69
2021/03/22 07:18:14;;;;;;;119.18;52.05;;;;;;;;;;5052730;28;20191;-70
2021/03/22 07:20:41;;;;;;;107.60;51.45;;;;;;;;;;5040909;28;20175;-69
2021/03/22 07:23:31;;;;;;;105.68;45.85;;;;;;;;;;5035359;28;20193;-69
2021/03/22 07:26:02;;;;;;;105.07;48.88;;;;;;;;;;5054281;28;20179;-69
2021/03/22 07:28:28;;;;;;;94.53;44.85;;;;;;;;;;5055224;28;20186;-70
2021/03/22 07:31:02;;;;;;;94.97;48.20;;;;;;;;;;5054695;28;20196;-69
2021/03/22 07:33:29;;;;;;;96.00;47.35;;;;;;;;;;5054550;28;20505;-69
2021/03/22 07:36:01;;;;;;;103.30;49.25;;;;;;;;;;5052720;28;20161;-69
2021/03/22 07:38:36;;;;;;;108.50;49.83;;;;;;;;;;5034456;28;20164;-70
2021/03/22 07:41:05;;;;;;;99.05;47.65;;;;;;;;;;5033307;28;20181;-70
2021/03/22 07:43:31;;;;;;;100.10;49.47;;;;;;;;;;5044432;28;20264;-68
2021/03/22 07:46:07;;;;;;;109.57;49.37;;;;;;;;;;5047612;28;20176;-69
2021/03/22 07:48:52;;;;;;;105.63;49.67;;;;;;;;;;5045944;28;20759;-68
2021/03/22 07:51:36;;;;;;;104.10;51.20;;;;;;;;;;5042991;28;20701;-69
2021/03/22 07:54:25;;;;;;;100.07;52.72;;;;;;;;;;5031011;28;20909;-69
2021/03/22 07:56:57;;;;;;;97.90;49.67;;;;;;;;;;4978354;28;20179;-70
2021/03/22 07:59:30;;;;;;;93.53;47.53;;;;;;;;;;5032945;28;20177;-69
2021/03/22 08:02:08;;;;;;;94.10;47.85;;;;;;;;;;5033944;28;20237;-68
2021/03/22 08:04:41;;;;;;;88.80;46.88;;;;;;;;;;5015024;28;20169;-67
2021/03/22 08:07:26;;;;;;;91.35;47.70;;;;;;;;;;5015523;28;20174;-68
2021/03/22 08:09:59;;;;;;;94.82;50.20;;;;;;;;;;5031017;28;20711;-69
2021/03/22 08:12:30;;;;;;;80.95;42.55;;;;;;;;;;5039811;28;20193;-68
2021/03/22 08:15:16;;;;;;;76.60;46.50;;;;;;;;;;5040582;28;20761;-66
2021/03/22 08:18:00;;;;;;;128.73;58.85;;;;;;;;;;4990516;28;20174;-68
2021/03/22 08:20:28;;;;;;;100.38;49.15;;;;;;;;;;5041430;28;20167;-69
2021/03/22 08:23:01;;;;;;;64.82;41.60;;;;;;;;;;5045157;28;20243;-69
2021/03/22 08:25:43;;;;;;;64.60;41.53;;;;;;;;;;5038436;28;20256;-69
2021/03/22 08:28:20;;;;;;;63.30;40.13;;;;;;;;;;5044048;28;20169;-68
2021/03/22 08:31:05;;;;;;;74.38;45.80;;;;;;;;;;5037283;28;20197;-68
2021/03/22 08:33:34;;;;;;;77.93;44.60;;;;;;;;;;5014616;28;20186;-66
2021/03/22 08:36:18;;;;;;;83.68;45.80;;;;;;;;;;5015622;28;20542;-68
2021/03/22 08:38:53;;;;;;;99.13;51.00;;;;;;;;;;5031267;28;21558;-67
2021/03/22 08:41:26;;;;;;;105.45;56.67;;;;;;;;;;5036068;28;20186;-66
2021/03/22 08:43:55;;;;;;;69.88;44.47;;;;;;;;;;5040616;28;20202;-66
2021/03/22 08:46:21;;;;;;;68.68;44.90;;;;;;;;;;5045345;28;20279;-67
2021/03/22 08:48:47;;;;;;;70.53;46.40;;;;;;;;;;5039511;28;20198;-67
2021/03/22 08:51:18;;;;;;;61.45;43.50;;;;;;;;;;5050809;28;20449;-68
2021/03/22 08:53:44;;;;;;;68.40;44.10;;;;;;;;;;5041213;28;20624;-66
2021/03/22 08:56:26;;;;;;;63.80;44.80;;;;;;;;;;5034249;28;20194;-66
2021/03/22 08:58:53;;;;;;;68.53;45.30;;;;;;;;;;5032674;28;20538;-69
2021/03/22 09:01:39;;;;;;;67.82;44.67;;;;;;;;;;5025676;28;20233;-69
2021/03/22 09:04:23;;;;;;;70.03;41.95;;;;;;;;;;5039486;28;20776;-68
2021/03/22 09:07:01;;;;;;;427.77;318.27;;;;;;;;;;5052382;28;20240;-69
2021/03/22 09:09:32;;;;;;;71.15;59.03;;;;;;;;;;5025058;28;20165;-68
2021/03/22 09:11:59;;;;;;;53.50;41.38;;;;;;;;;;5045073;28;20187;-70
2021/03/22 09:14:25;;;;;;;32.05;29.15;;;;;;;;;;5039555;28;20169;-68
2021/03/22 09:16:52;;;;;;;23.10;22.10;;;;;;;;;;5046348;28;20689;-69
2021/03/22 09:19:22;;;;;;;7.00;6.80;;;;;;;;;;5047102;28;20423;-69
2021/03/22 09:22:09;;;;;;;29.42;28.13;;;;;;;;;;5029602;28;20483;-69
2021/03/22 09:24:38;;;;;;;8.53;8.33;;;;;;;;;;5042281;28;20172;-70
2021/03/22 09:27:04;;;;;;;;;;;;;;;;;;5046847;28;20290;-70
2021/03/22 09:29:30;;;;;;;;;;;;;;;;;;5049406;28;19912;-69
2021/03/22 09:31:55;;;;;;;;;;;;;;;;;;5046708;28;19905;-69
2021/03/22 09:34:21;;;;;;;;;;;;;;;;;;5038550;28;19980;-68
2021/03/22 09:36:50;;;;;;;29.13;27.48;;;;;;;;;;5026135;28;19905;-68
2021/03/22 09:39:18;;;;;;;11.83;11.43;;;;;;;;;;5034294;28;20177;-68
2021/03/22 09:41:53;;;;;;;23.70;22.20;;;;;;;;;;5043536;28;20435;-69
2021/03/22 09:44:20;;;;;;;45.13;41.17;;;;;;;;;;5030235;28;20443;-69
2021/03/22 09:46:48;;;;;;;54.30;48.50;;;;;;;;;;5050690;28;20465;-68
2021/03/22 09:49:16;;;;;;;40.93;37.17;;;;;;;;;;5044466;28;20419;-70
2021/03/22 09:51:45;;;;;;;31.03;28.93;;;;;;;;;;5043155;28;20407;-69
2021/03/22 09:54:30;;;;;;;44.37;39.67;;;;;;;;;;5041571;28;20436;-69
2021/03/22 09:57:20;;;;;;;49.93;42.03;;;;;;;;;;5023166;28;20404;-67
2021/03/22 10:00:04;;;;;;;29.33;27.20;;;;;;;;;;5044905;28;20414;-68
2021/03/22 10:02:33;;;;;;;36.97;33.60;;;;;;;;;;5027161;28;21005;-69
2021/03/22 10:05:08;;;;;;;53.67;42.97;;;;;;;;;;5037667;28;20918;-68
2021/03/22 10:07:36;;;;;;;1276.45;999.90;;;;;;;;;;5034356;28;20464;-69
2021/03/22 10:10:11;;;;;;;90.13;82.73;;;;;;;;;;5036158;28;20189;-67
2021/03/22 10:12:46;;;;;;;872.72;789.53;;;;;;;;;;5036272;28;20436;-68
2021/03/22 10:15:20;;;;;;;1014.57;931.27;;;;;;;;;;5035964;28;20171;-67
2021/03/22 10:17:52;;;;;;;1024.43;941.53;;;;;;;;;;5033093;28;20408;-67
2021/03/22 10:20:23;;;;;;;1000.67;920.77;;;;;;;;;;5027749;28;20417;-68
2021/03/22 10:22:53;;;;;;;1091.30;999.90;;;;;;;;;;5009240;28;20413;-68
2021/03/22 10:25:26;;;;;;;1066.90;985.13;;;;;;;;;;5025717;28;20601;-70
2021/03/22 10:27:59;;;;;;;1099.37;999.90;;;;;;;;;;5019078;28;20423;-68
2021/03/22 10:30:25;;;;;;;1067.43;985.33;;;;;;;;;;5026569;28;20474;-68
2021/03/22 10:33:05;;;;;;;1034.40;951.60;;;;;;;;;;5030780;28;20435;-69
2021/03/22 10:35:31;;;;;;;;;;;;;;;;;;5026755;28;19947;-69
2021/03/22 10:37:56;;;;;;;;;;;;;;;;;;5034937;28;19966;-67
2021/03/22 10:40:22;;;;;;;;;;;;;;;;;;5035179;28;20036;-69
2021/03/22 10:42:48;;;;;;;;;;;;;;;;;;5034770;28;20309;-69
2021/03/22 10:45:14;;;;;;;;;;;;;;;;;;5029922;28;20012;-69
2021/03/22 10:47:40;;;;;;;;;;;;;;;;;;5034962;28;19956;-68
2021/03/22 10:50:06;;;;;;;;;;;;;;;;;;5035043;28;19973;-69
2021/03/22 10:52:32;;;;;;;;;;;;;;;;;;5040397;28;19959;-69
2021/03/22 10:54:58;;;;;;;;;;;;;;;;;;5042613;28;20310;-69
2021/03/22 10:57:24;;;;;;;;;;;;;;;;;;5041741;28;20050;-68
2021/03/22 10:59:50;;;;;;;;;;;;;;;;;;5043073;28;19956;-68
2021/03/22 11:02:15;;;;;;;;;;;;;;;;;;5045531;28;20367;-69
2021/03/22 11:04:41;;;;;;;;;;;;;;;;;;5048653;28;19932;-69
2021/03/22 11:07:07;;;;;;;;;;;;;;;;;;5045884;28;20436;-69
2021/03/22 11:09:33;;;;;;;;;;;;;;;;;;5048789;28;19934;-69
2021/03/22 11:11:59;;;;;;;;;;;;;;;;;;5029222;28;19959;-69
2021/03/22 11:14:25;;;;;;;;;;;;;;;;;;5048123;28;19942;-69
2021/03/22 11:16:51;;;;;;;;;;;;;;;;;;5040573;28;20414;-69
2021/03/22 11:19:17;;;;;;;;;;;;;;;;;;5046296;28;19960;-69
2021/03/22 11:21:42;;;;;;;;;;;;;;;;;;5044448;28;19945;-68
2021/03/22 11:24:08;;;;;;;;;;;;;;;;;;5041109;28;20002;-68
2021/03/22 11:26:34;;;;;;;;;;;;;;;;;;5036725;28;19928;-69
2021/03/22 11:29:00;;;;;;;;;;;;;;;;;;5035243;28;19931;-68
2021/03/22 11:31:26;;;;;;;;;;;;;;;;;;5032792;28;19949;-70
2021/03/22 11:33:52;;;;;;;;;;;;;;;;;;5011683;28;19976;-70
2021/03/22 11:36:18;;;;;;;;;;;;;;;;;;5006342;28;19936;-69
2021/03/22 11:38:44;;;;;;;;;;;;;;;;;;5029497;28;20294;-70
2021/03/22 11:41:09;;;;;;;;;;;;;;;;;;5031366;28;19957;-68
2021/03/22 11:43:35;;;;;;;;;;;;;;;;;;5029340;28;19991;-71
2021/03/22 11:46:01;;;;;;;;;;;;;;;;;;5029877;28;19951;-68
2021/03/22 11:48:27;;;;;;;;;;;;;;;;;;5040697;28;19927;-68
2021/03/22 11:50:53;;;;;;;;;;;;;;;;;;5039675;28;19937;-70
2021/03/22 11:53:22;;;;;;;;;;;;;;;;;;5038560;28;19955;-69
2021/03/22 11:55:48;;;;;;;;;;;;;;;;;;5040291;28;20299;-69
2021/03/22 11:58:13;;;;;;;;;;;;;;;;;;5036671;28;20005;-67
2021/03/22 12:00:39;;;;;;;;;;;;;;;;;;5037511;28;20563;-68
2021/03/22 12:03:08;;;;;;;;;;;;;;;;;;5035875;28;20028;-68
2021/03/22 12:05:34;;;;;;;;;;;;;;;;;;5033623;28;20407;-70
2021/03/22 12:08:00;;;;;;;;;;;;;;;;;;5027133;28;20034;-70
2021/03/22 12:10:27;;;;;;;;;;;;;;;;;;5038795;28;20046;-70
2021/03/22 12:12:53;;;;;;;;;;;;;;;;;;5038437;28;20013;-70
2021/03/22 12:15:19;;;;;;;;;;;;;;;;;;5044251;28;19938;-69
2021/03/22 12:17:45;;;;;;;;;;;;;;;;;;5034207;28;19932;-70
2021/03/22 12:20:11;;;;;;;;;;;;;;;;;;5032788;28;19996;-70
2021/03/22 12:22:37;;;;;;;;;;;;;;;;;;5032316;28;19954;-70
2021/03/22 12:25:02;;;;;;;;;;;;;;;;;;5033023;28;20072;-70
2021/03/22 12:27:28;;;;;;;;;;;;;;;;;;5032866;28;20413;-67
2021/03/22 12:29:54;;;;;;;;;;;;;;;;;;5031443;28;19944;-69
2021/03/22 12:32:20;;;;;;;;;;;;;;;;;;5031923;28;20045;-70
2021/03/22 12:34:46;;;;;;;;;;;;;;;;;;5033800;28;20358;-69
2021/03/22 12:37:12;;;;;;;;;;;;;;;;;;5034551;28;20059;-68
2021/03/22 12:39:37;;;;;;;;;;;;;;;;;;5034329;28;21004;-69
2021/03/22 12:42:03;;;;;;;;;;;;;;;;;;5036477;28;19958;-69
2021/03/22 12:44:29;;;;;;;;;;;;;;;;;;5037151;28;19937;-71
2021/03/22 12:46:55;;;;;;;;;;;;;;;;;;5036864;28;19997;-71
2021/03/22 12:49:21;;;;;;;;;;;;;;;;;;5036043;28;20000;-69
2021/03/22 12:51:47;;;;;;;;;;;;;;;;;;5034103;28;19934;-69
2021/03/22 12:54:13;;;;;;;;;;;;;;;;;;5035984;28;20016;-70
2021/03/22 12:56:39;;;;;;;;;;;;;;;;;;5047437;28;19975;-68
2021/03/22 12:59:05;;;;;;;;;;;;;;;;;;5046318;28;20008;-69
2021/03/22 13:01:31;;;;;;;;;;;;;;;;;;5039983;28;19956;-71
2021/03/22 13:03:57;;;;;;;;;;;;;;;;;;5038684;28;19954;-69
2021/03/22 13:06:24;;;;;;;;;;;;;;;;;;5039540;28;19938;-70
2021/03/22 13:08:50;;;;;;;;;;;;;;;;;;5040989;28;20031;-71
2021/03/22 13:11:16;;;;;;;;;;;;;;;;;;5049538;28;20027;-70
2021/03/22 13:13:42;;;;;;;;;;;;;;;;;;5055117;28;19966;-69
2021/03/22 13:16:07;;;;;;;;;;;;;;;;;;5050889;28;20066;-69
2021/03/22 13:18:33;;;;;;;;;;;;;;;;;;5043767;28;19933;-70
2021/03/22 13:20:59;;;;;;;;;;;;;;;;;;5020042;28;20014;-71
2021/03/22 13:23:25;;;;;;;;;;;;;;;;;;5040675;28;20392;-69
2021/03/22 13:25:52;;;;;;;;;;;;;;;;;;5034766;28;20028;-69
2021/03/22 13:28:17;;;;;;;;;;;;;;;;;;5044228;28;20047;-69
2021/03/22 13:30:43;;;;;;;;;;;;;;;;;;5043752;28;19928;-70
2021/03/22 13:33:09;;;;;;;;;;;;;;;;;;5039703;28;19952;-70
2021/03/22 13:35:35;;;;;;;;;;;;;;;;;;5034504;28;19930;-69
2021/03/22 13:38:02;;;;;;;;;;;;;;;;;;5035390;28;19930;-71
2021/03/22 13:40:28;;;;;;;;;;;;;;;;;;5035480;28;19957;-68
2021/03/22 13:42:54;;;;;;;;;;;;;;;;;;5035092;28;20466;-70
2021/03/22 13:45:20;;;;;;;;;;;;;;;;;;5033896;28;20016;-70
2021/03/22 13:47:46;;;;;;;;;;;;;;;;;;5034892;28;19931;-69
2021/03/22 13:50:11;;;;;;;;;;;;;;;;;;5042640;28;19932;-70
2021/03/22 13:52:37;;;;;;;;;;;;;;;;;;5047981;28;19957;-70
2021/03/22 13:55:03;;;;;;;;;;;;;;;;;;5042574;28;20000;-70
2021/03/22 13:57:29;;;;;;;;;;;;;;;;;;5036743;28;20001;-70
2021/03/22 13:59:55;;;;;;;;;;;;;;;;;;5039964;28;19942;-70
2021/03/22 14:02:21;;;;;;;;;;;;;;;;;;5039896;28;20030;-70
2021/03/22 14:04:47;;;;;;;;;;;;;;;;;;5036596;28;19926;-68
2021/03/22 14:07:13;;;;;;;;;;;;;;;;;;5044042;28;19939;-70
2021/03/22 14:09:39;;;;;;;;;;;;;;;;;;5035573;28;19928;-70
2021/03/22 14:12:04;;;;;;;;;;;;;;;;;;5034735;28;19948;-71
2021/03/22 14:14:30;;;;;;;;;;;;;;;;;;5038006;28;19940;-69
2021/03/22 14:16:56;;;;;;;;;;;;;;;;;;5040593;28;19942;-69
2021/03/22 14:19:22;;;;;;;;;;;;;;;;;;5037428;28;20018;-69
2021/03/22 14:21:48;;;;;;;;;;;;;;;;;;5035514;28;19946;-69
2021/03/22 14:24:14;;;;;;;;;;;;;;;;;;5038807;28;19964;-70
2021/03/22 14:26:40;;;;;;;;;;;;;;;;;;5042450;28;19929;-70
2021/03/22 14:29:06;;;;;;;;;;;;;;;;;;5033365;28;20317;-70
2021/03/22 14:31:32;;;;;;;;;;;;;;;;;;5033302;28;19934;-69
2021/03/22 14:33:58;;;;;;;;;;;;;;;;;;5038556;28;20370;-68
2021/03/22 14:36:24;;;;;;;;;;;;;;;;;;5038679;28;19980;-68
2021/03/22 14:38:50;;;;;;;;;;;;;;;;;;5041249;28;19963;-67
2021/03/22 14:41:16;;;;;;;;;;;;;;;;;;5038215;28;19929;-68
2021/03/22 14:43:42;;;;;;;;;;;;;;;;;;5042206;28;20387;-68
2021/03/22 14:46:08;;;;;;;;;;;;;;;;;;5043435;28;19935;-70
2021/03/22 14:48:34;;;;;;;;;;;;;;;;;;5038594;28;19930;-69
2021/03/22 14:51:00;;;;;;;;;;;;;;;;;;5033376;28;19960;-70
2021/03/22 14:53:26;;;;;;;;;;;;;;;;;;5039109;28;19956;-68
2021/03/22 14:55:52;;;;;;;;;;;;;;;;;;5033973;28;20027;-69
2021/03/22 14:58:18;;;;;;;;;;;;;;;;;;5032425;28;19937;-71
2021/03/22 15:00:44;;;;;;;;;;;;;;;;;;5032209;28;19934;-70
2021/03/22 15:03:09;;;;;;;;;;;;;;;;;;5032292;28;19950;-71
2021/03/22 15:05:35;;;;;;;;;;;;;;;;;;5026241;28;19976;-70
2021/03/22 15:08:01;;;;;;;;;;;;;;;;;;5029876;28;20421;-70